Conway, New Hampshire
Current Conditions -  °F | °C
As of 2:54 AM on Saturday 20 Dec 2014 (Local Time) from KIZG Reporting Station
Clear Clear  
Wind Chill: 14°   Ceiling: Unl
Heat Index: 14°   Visibility: 10mi
Dew Point: 10°   Wind: 0mph
Humidity: 84%   Direction: NA
Pressure: 30.2"   Gusts: NA
Location:  43.98°N, 71.12°W
Report Text: KIZG 200754Z AUTO 00000KT 10SM CLR M10/M12 A3020 RMK AO2 SLP235 I1000 T11001122
Loading
Personal Weather Stations






























Interactive Weather Map New forecast layout! Learn more

10-Day Weather Forecast

Advertisements
Track Severe Weather on mobile